• Join FlightAware (Why Join?)
  • Login
  • US Flag 
08:37AM EDT


 

Airport Tracker/Info


-or-


 

Live Flight TrackerFlight Track Log ✈ N75AW ✈ 06-Jun-2013 ✈ KEYW - KAPF

Flight Track Log - Related Links

Times and Time Zones

All times are in EDT time to prevent confusion due to time zone crossing. See the N75AW flight status page for this flight to view local times or setup timezone preferences in your user account.

Time Position Orientation Groundspeed Altitude Reporting Facility
EDT Latitude Longitude Course Direction KTS MPH feet Rate Location/Type
10:06AM 24.6822 -81.7750 334° Northwest 211 243 6,000  Level Miami Center
10:07AM 24.7314 -81.8042 332° Northwest 213 245 8,200 2,220 Climbing Miami Center
10:08AM 24.7764 -81.8311 331° Northwest 207 238 10,500 1,920 Climbing Miami Center
10:09AM 24.8275 -81.8608 332° Northwest 201 231 12,100 660 Climbing Miami Center
10:10AM 24.8309 -81.9476 318° Northwest  Level FlightAware Approximate
10:10AM 24.8931 -81.8978 333° Northwest 224 258 11,900  Level Miami Center
10:11AM 24.8794 -81.9593 13° North  Level FlightAware Approximate
10:11AM 24.9675 -81.9236 343° North 255 293 12,000  Level Miami Center
10:12AM 25.0514 -81.9133 North 276 318 12,000  Level Miami Center
10:13AM 25.1417 -81.9011 North 288 331 12,000 -180 Level Miami Center
10:14AM 25.2275 -81.8886 North 299 344 11,700 -600 Descending Miami Center
10:15AM 25.3158 -81.8761 North 305 351 10,900 -840 Descending Miami Center
10:16AM 25.4017 -81.8658 North 310 357 10,100 -780 Descending Miami Center
10:17AM 25.4708 -81.8594 North 310 357 9,400 -1,020 Descending Miami Center
10:18AM 25.5736 -81.8478 North 310 357 8,100 -1,500 Descending Miami Center
10:19AM 25.6594 -81.8350 North 310 357 6,500 -1,620 Descending Miami Center
10:20AM 25.7350 -81.8267 North 317 365 4,900 -1,260 Descending Miami Center
10:21AM 25.8167 -81.8161 North 305 351 4,000 -780 Descending Miami Center
10:22AM 25.8850 -81.8353 346° North 260 299 3,400 -780 Descending Miami Center
10:23AM 25.9594 -81.8544 347° North 255 293 2,500 300 Descending Miami Center
10:24AM 26.0258 -81.8689 349° North 255 293 4,000 720 Climbing Miami Center
10:25AM 26.0942 -81.8833 349° North 255 293 4,000  Level Miami Center
10:26AM 26.1481 -81.8947 349° North 255 293 4,000  Level Miami Center
10:28AM 26.1481 -81.8947 204° Southwest 255 293 4,000  Level Miami Center
10:31AM 26.1497 -81.7859 89° East  Level FlightAware Approximate